createdAt,value
2022-09-12T00:00:03.739Z,939.52
2022-09-12T00:01:04.461Z,939.54
2022-09-12T00:02:04.601Z,939.54
2022-09-12T00:03:04.762Z,939.51
2022-09-12T00:04:05.674Z,939.51
2022-09-12T00:05:06.719Z,939.5
2022-09-12T00:06:06.916Z,939.49
2022-09-12T00:07:07.391Z,939.49
2022-09-12T00:08:08.097Z,939.48
2022-09-12T00:09:08.283Z,939.44
2022-09-12T00:10:09.200Z,939.48
2022-09-12T00:11:09.678Z,939.45
2022-09-12T00:12:10.712Z,939.47
2022-09-12T00:13:10.921Z,939.44
2022-09-12T00:14:11.442Z,939.45
2022-09-12T00:15:12.171Z,939.47
2022-09-12T00:16:13.102Z,939.47
2022-09-12T00:17:13.765Z,939.43
2022-09-12T00:18:14.659Z,939.4
2022-09-12T00:19:15.588Z,939.41
2022-09-12T00:20:16.213Z,939.39
2022-09-12T00:21:16.814Z,939.39
2022-09-12T00:22:17.127Z,939.37
2022-09-12T00:23:17.607Z,939.38
2022-09-12T00:24:17.798Z,939.33
2022-09-12T00:25:18.801Z,939.35
2022-09-12T00:26:19.438Z,939.33
2022-09-12T00:27:19.772Z,939.33
2022-09-12T00:29:20.454Z,939.32
2022-09-12T00:30:20.639Z,939.32
2022-09-12T00:31:20.914Z,939.3
2022-09-12T00:32:21.661Z,939.34
2022-09-12T00:33:22.269Z,939.28
2022-09-12T00:34:22.886Z,939.3
2022-09-12T00:35:23.892Z,939.29
2022-09-12T00:36:24.788Z,939.29
2022-09-12T00:37:25.724Z,939.29
2022-09-12T00:38:26.339Z,939.29
2022-09-12T00:39:27.054Z,939.27
2022-09-12T00:40:27.785Z,939.28
2022-09-12T00:41:27.972Z,939.26
2022-09-12T00:42:28.308Z,939.24
2022-09-12T00:43:29.198Z,939.28
2022-09-12T00:44:29.719Z,939.23
2022-09-12T00:45:30.159Z,939.24
2022-09-12T00:46:30.566Z,939.2
2022-09-12T00:47:31.182Z,939.2
2022-09-12T00:48:31.390Z,939.21
2022-09-12T00:49:32.413Z,939.19
2022-09-12T00:50:33.041Z,939.2
2022-09-12T00:51:33.976Z,939.2
2022-09-12T00:52:34.869Z,939.16
2022-09-12T00:53:35.782Z,939.17
2022-09-12T00:54:36.278Z,939.16
2022-09-12T00:55:37.270Z,939.13
2022-09-12T00:56:38.179Z,939.13
2022-09-12T00:57:38.820Z,939.19
2022-09-12T00:58:39.453Z,939.16
2022-09-12T00:59:39.592Z,939.16
2022-09-12T01:00:40.506Z,939.13
2022-09-12T01:01:41.235Z,939.1
2022-09-12T01:02:41.500Z,939.07
2022-09-12T01:03:42.104Z,939.06
2022-09-12T01:04:43.015Z,939.08
2022-09-12T01:05:43.452Z,939.06
2022-09-12T01:06:43.656Z,939.08
2022-09-12T01:07:43.842Z,939.04
2022-09-12T01:10:46.214Z,939.02
2022-09-12T01:11:47.107Z,939
2022-09-12T01:12:48.025Z,938.97
2022-09-12T01:13:48.636Z,938.94
2022-09-12T01:14:49.234Z,938.93
2022-09-12T01:15:49.639Z,938.95
2022-09-12T01:16:49.959Z,938.95
2022-09-12T01:17:50.882Z,938.93
2022-09-12T01:18:51.196Z,938.93
2022-09-12T01:19:51.387Z,938.9
2022-09-12T01:20:52.019Z,938.91
2022-09-12T01:21:52.899Z,938.88
2022-09-12T01:22:53.106Z,938.84
2022-09-12T01:23:53.997Z,938.88
2022-09-12T01:24:54.986Z,938.84
2022-09-12T01:25:55.713Z,938.84
2022-09-12T01:26:56.324Z,938.79
2022-09-12T01:27:56.511Z,938.82
2022-09-12T01:28:56.842Z,938.76
2022-09-12T01:29:57.092Z,938.75
2022-09-12T01:30:58.005Z,938.77
2022-09-12T01:31:58.991Z,938.76
2022-09-12T01:32:59.111Z,938.76
2022-09-12T01:33:59.302Z,938.75
2022-09-12T01:35:00.213Z,938.72
2022-09-12T01:36:00.944Z,938.69
2022-09-12T01:37:01.116Z,938.7
2022-09-12T01:38:01.734Z,938.71
2022-09-12T01:39:01.917Z,938.7
2022-09-12T01:40:02.144Z,938.71
2022-09-12T01:41:02.867Z,938.66
2022-09-12T01:42:03.495Z,938.65
2022-09-12T01:43:04.107Z,938.66
2022-09-12T01:44:04.743Z,938.66
2022-09-12T01:45:05.686Z,938.67
2022-09-12T01:46:05.862Z,938.65
2022-09-12T01:47:06.087Z,938.64
2022-09-12T01:48:06.277Z,938.66
2022-09-12T01:49:06.912Z,938.59
2022-09-12T01:50:07.817Z,938.59
2022-09-12T01:51:08.139Z,938.58
2022-09-12T01:52:08.777Z,938.59
2022-09-12T01:53:09.393Z,938.57
2022-09-12T01:54:09.723Z,938.57
2022-09-12T01:55:10.059Z,938.58
2022-09-12T01:56:11.042Z,938.55
2022-09-12T01:57:11.678Z,938.58
2022-09-12T01:58:11.870Z,938.59
2022-09-12T01:59:12.474Z,938.58
2022-09-12T02:00:12.722Z,938.58
2022-09-12T02:01:13.083Z,938.57
2022-09-12T02:02:13.395Z,938.52
2022-09-12T02:03:14.153Z,938.49
2022-09-12T02:04:14.484Z,938.5
2022-09-12T02:05:14.849Z,938.47
2022-09-12T02:06:15.301Z,938.49
2022-09-12T02:07:16.199Z,938.47
2022-09-12T02:08:17.128Z,938.48
2022-09-12T02:09:17.317Z,938.46
2022-09-12T02:10:17.907Z,938.45
2022-09-12T02:11:18.572Z,938.45
2022-09-12T02:12:18.912Z,938.49
2022-09-12T02:13:19.798Z,938.45
2022-09-12T02:14:20.006Z,938.47
2022-09-12T02:15:20.525Z,938.47
2022-09-12T02:16:20.978Z,938.46
2022-09-12T02:17:21.941Z,938.43
2022-09-12T02:18:22.849Z,938.41
2022-09-12T02:19:23.902Z,938.43
2022-09-12T02:20:44.270Z,938.41
2022-09-12T02:21:25.377Z,938.4
2022-09-12T02:22:25.970Z,938.35
2022-09-12T02:23:26.155Z,938.42
2022-09-12T02:24:26.363Z,938.38
2022-09-12T02:25:26.577Z,938.33
2022-09-12T02:26:27.559Z,938.39
2022-09-12T02:27:28.470Z,938.36
2022-09-12T02:28:29.080Z,938.34
2022-09-12T02:29:30.106Z,938.34
2022-09-12T02:30:30.356Z,938.35
2022-09-12T02:31:30.791Z,938.37
2022-09-12T02:32:31.417Z,938.37
2022-09-12T02:33:32.020Z,938.38
2022-09-12T02:34:32.627Z,938.38
2022-09-12T02:35:33.532Z,938.36
2022-09-12T02:36:34.395Z,938.33
2022-09-12T02:37:34.870Z,938.34
2022-09-12T02:38:35.545Z,938.31
2022-09-12T02:39:36.382Z,938.32
2022-09-12T02:40:36.845Z,938.29
2022-09-12T02:41:37.757Z,938.3
2022-09-12T02:42:38.372Z,938.26
2022-09-12T02:43:38.962Z,938.28
2022-09-12T02:44:39.282Z,938.24
2022-09-12T02:45:40.291Z,938.21
2022-09-12T02:46:40.734Z,938.23
2022-09-12T02:47:41.354Z,938.22
2022-09-12T02:48:42.293Z,938.27
2022-09-12T02:49:42.654Z,938.25
2022-09-12T02:50:42.852Z,938.21
2022-09-12T02:51:43.065Z,938.27
2022-09-12T02:52:43.384Z,938.25
2022-09-12T02:53:43.996Z,938.3
2022-09-12T02:54:44.186Z,938.24
2022-09-12T02:55:44.793Z,938.24
2022-09-12T02:56:44.920Z,938.22
2022-09-12T02:57:45.535Z,938.21
2022-09-12T02:58:46.521Z,938.24
2022-09-12T02:59:47.504Z,938.23
2022-09-12T03:00:48.048Z,938.25
2022-09-12T03:01:49.024Z,938.23
2022-09-12T03:02:49.259Z,938.25
2022-09-12T03:03:50.192Z,938.26
2022-09-12T03:04:50.826Z,938.26
2022-09-12T03:05:51.757Z,938.27
2022-09-12T03:06:52.200Z,938.23
2022-09-12T03:07:52.369Z,938.28
2022-09-12T03:08:52.851Z,938.25
2022-09-12T03:09:53.191Z,938.29
2022-09-12T03:10:53.393Z,938.26
2022-09-12T03:11:54.305Z,938.25
2022-09-12T03:12:54.623Z,938.24
2022-09-12T03:13:55.535Z,938.25
2022-09-12T03:14:56.415Z,938.25
2022-09-12T03:15:56.981Z,938.26
2022-09-12T03:16:57.891Z,938.21
2022-09-12T03:17:58.109Z,938.21
2022-09-12T03:18:58.731Z,938.22
2022-09-12T03:19:59.362Z,938.2
2022-09-12T03:21:00.323Z,938.17
2022-09-12T03:22:00.585Z,938.16
2022-09-12T03:23:01.507Z,938.16
2022-09-12T03:24:02.133Z,938.16
2022-09-12T03:25:03.040Z,938.15
2022-09-12T03:26:03.953Z,938.15
2022-09-12T03:27:04.231Z,938.14
2022-09-12T03:28:04.416Z,938.16
2022-09-12T03:29:05.049Z,938.15
2022-09-12T03:30:05.688Z,938.12
2022-09-12T03:31:06.002Z,938.09
2022-09-12T03:32:06.902Z,938.06
2022-09-12T03:33:07.119Z,938.09
2022-09-12T03:34:07.457Z,938.06
2022-09-12T03:35:07.939Z,938.06
2022-09-12T03:36:08.775Z,938.08
2022-09-12T03:37:09.508Z,938.08
2022-09-12T03:38:10.125Z,938.06
2022-09-12T03:39:10.733Z,938.06
2022-09-12T03:40:11.795Z,938.07
2022-09-12T03:41:12.546Z,938.09
2022-09-12T03:42:13.451Z,938.09
2022-09-12T03:43:13.637Z,938.1
2022-09-12T03:44:14.247Z,938.05
2022-09-12T03:45:14.558Z,938.05
2022-09-12T03:46:14.922Z,938.07
2022-09-12T03:47:15.656Z,938.06
2022-09-12T03:48:15.855Z,938.03
2022-09-12T03:49:16.168Z,938.03
2022-09-12T03:50:17.198Z,938
2022-09-12T03:51:17.794Z,938.07
2022-09-12T03:52:18.429Z,937.99
2022-09-12T03:53:19.097Z,938.02
2022-09-12T03:54:19.711Z,938.01
2022-09-12T03:55:20.325Z,938
2022-09-12T03:56:21.256Z,937.99
2022-09-12T03:57:21.358Z,937.96
2022-09-12T03:58:21.550Z,937.96
2022-09-12T03:59:21.755Z,937.98
2022-09-12T04:00:22.641Z,937.97
2022-09-12T04:01:22.911Z,937.94
2022-09-12T04:02:23.156Z,937.96
2022-09-12T04:03:23.988Z,937.96
2022-09-12T04:04:24.177Z,938
2022-09-12T04:05:24.388Z,937.94
2022-09-12T04:06:25.277Z,937.99
2022-09-12T04:07:25.603Z,937.96
2022-09-12T04:08:26.221Z,938.02
2022-09-12T04:09:27.138Z,938
2022-09-12T04:10:27.450Z,938.01
2022-09-12T04:11:28.093Z,938.01
2022-09-12T04:12:29.108Z,938.02
2022-09-12T04:13:29.719Z,938.03
2022-09-12T04:14:30.426Z,938.02
2022-09-12T04:15:31.060Z,938.06
2022-09-12T04:16:31.282Z,938.02
2022-09-12T04:17:31.977Z,938.08
2022-09-12T04:18:32.886Z,938.09
2022-09-12T04:19:33.497Z,938.04
2022-09-12T04:20:34.410Z,938.06
2022-09-12T04:21:35.023Z,938.07
2022-09-12T04:22:35.233Z,938.03
2022-09-12T04:23:35.402Z,938.06
2022-09-12T04:24:36.299Z,938.05
2022-09-12T04:25:37.210Z,938.06
2022-09-12T04:26:37.822Z,938.08
2022-09-12T04:27:38.845Z,938.05
2022-09-12T04:28:39.448Z,938.09
2022-09-12T04:29:40.543Z,938.09
2022-09-12T04:30:41.212Z,938.08
2022-09-12T04:31:41.447Z,938.08
2022-09-12T04:32:41.756Z,938.08
2022-09-12T04:33:42.657Z,938.07
2022-09-12T04:34:43.568Z,938.05
2022-09-12T04:35:44.176Z,938.09
2022-09-12T04:36:44.657Z,938.08
2022-09-12T04:37:45.093Z,938.05
2022-09-12T04:38:45.798Z,938.08
2022-09-12T04:39:46.303Z,938.08
2022-09-12T04:40:46.656Z,938.08
2022-09-12T04:41:46.970Z,938.08
2022-09-12T04:42:47.173Z,938.1
2022-09-12T04:43:47.364Z,938.12
2022-09-12T04:44:48.263Z,938.1
2022-09-12T04:45:48.483Z,938.11
2022-09-12T04:46:49.284Z,938.06
2022-09-12T04:47:50.268Z,938.06
2022-09-12T04:48:54.593Z,938.05
2022-09-12T04:49:51.928Z,938.07
2022-09-12T04:50:52.120Z,938.07
2022-09-12T04:51:52.749Z,938.1
2022-09-12T04:52:52.966Z,938.09
2022-09-12T04:53:53.139Z,938.14
2022-09-12T04:54:54.043Z,938.13
2022-09-12T04:55:54.966Z,938.12
2022-09-12T04:56:55.579Z,938.11
2022-09-12T04:57:56.282Z,938.12
2022-09-12T04:58:56.472Z,938.1
2022-09-12T04:59:56.805Z,938.09
2022-09-12T05:00:57.269Z,938.07
2022-09-12T05:01:57.770Z,938.08
2022-09-12T05:02:58.222Z,938.11
2022-09-12T05:03:59.163Z,938.07
2022-09-12T05:04:59.475Z,938.07
2022-09-12T05:05:59.803Z,938.05
2022-09-12T05:07:00.137Z,938.06
2022-09-12T05:08:00.457Z,938.04
2022-09-12T05:09:01.328Z,938.06
2022-09-12T05:10:01.958Z,938.05
2022-09-12T05:11:02.615Z,938.05
2022-09-12T05:12:04.840Z,938.07
2022-09-12T05:13:03.716Z,938.07
2022-09-12T05:14:04.629Z,938.09
2022-09-12T05:15:05.538Z,938.09
2022-09-12T05:16:06.469Z,938.11
2022-09-12T05:17:06.794Z,938.09
2022-09-12T05:18:07.804Z,938.11
2022-09-12T05:19:08.727Z,938.1
2022-09-12T05:20:08.918Z,938.06
2022-09-12T05:21:09.825Z,938.11
2022-09-12T05:22:10.454Z,938.11
2022-09-12T05:23:11.074Z,938.15
2022-09-12T05:24:11.274Z,938.11
2022-09-12T05:25:12.166Z,938.14
2022-09-12T05:26:13.057Z,938.14
2022-09-12T05:27:13.949Z,938.13
2022-09-12T05:28:14.658Z,938.15
2022-09-12T05:29:14.871Z,938.15
2022-09-12T05:30:15.784Z,938.18
2022-09-12T05:31:16.067Z,938.18
2022-09-12T05:32:17.014Z,938.17
2022-09-12T05:33:17.621Z,938.18
2022-09-12T05:34:17.795Z,938.21
2022-09-12T05:35:18.058Z,938.25
2022-09-12T05:36:18.971Z,938.26
2022-09-12T05:37:19.880Z,938.26
2022-09-12T05:38:20.600Z,938.22
2022-09-12T05:39:21.494Z,938.23
2022-09-12T05:40:21.926Z,938.23
2022-09-12T05:41:24.943Z,938.18
2022-09-12T05:42:23.011Z,938.22
2022-09-12T05:43:23.652Z,938.27
2022-09-12T05:44:24.148Z,938.24
2022-09-12T05:45:25.085Z,938.22
2022-09-12T05:46:25.197Z,938.21
2022-09-12T05:47:25.717Z,938.22
2022-09-12T05:48:26.020Z,938.23
2022-09-12T05:49:26.317Z,938.21
2022-09-12T05:50:26.526Z,938.27
2022-09-12T05:51:27.437Z,938.28
2022-09-12T05:52:27.631Z,938.27
2022-09-12T05:53:28.573Z,938.27
2022-09-12T05:54:31.598Z,938.28
2022-09-12T05:55:29.367Z,938.29
2022-09-12T05:56:29.689Z,938.31
2022-09-12T05:57:30.033Z,938.35
2022-09-12T05:58:30.446Z,938.32
2022-09-12T05:59:31.500Z,938.38
2022-09-12T06:00:33.598Z,938.37
2022-09-12T06:01:32.964Z,938.39
2022-09-12T06:02:33.630Z,938.39
2022-09-12T06:03:34.663Z,938.38
2022-09-12T06:04:34.869Z,938.4
2022-09-12T06:05:35.502Z,938.38
2022-09-12T06:06:36.429Z,938.41
2022-09-12T06:07:37.107Z,938.4
2022-09-12T06:08:38.132Z,938.45
2022-09-12T06:09:38.571Z,938.44
2022-09-12T06:10:38.767Z,938.48
2022-09-12T06:11:39.361Z,938.54
2022-09-12T06:12:39.575Z,938.56
2022-09-12T06:13:40.590Z,938.46
2022-09-12T06:14:40.807Z,938.55
2022-09-12T06:15:40.997Z,938.54
2022-09-12T06:16:41.264Z,938.5
2022-09-12T06:17:41.844Z,938.54
2022-09-12T06:18:42.373Z,938.49
2022-09-12T06:19:43.397Z,938.52
2022-09-12T06:20:43.618Z,938.49
2022-09-12T06:21:44.534Z,938.47
2022-09-12T06:22:45.516Z,938.46
2022-09-12T06:23:45.738Z,938.49
2022-09-12T06:24:45.953Z,938.46
2022-09-12T06:25:46.104Z,938.47
2022-09-12T06:26:46.737Z,938.49
2022-09-12T06:27:46.955Z,938.54
2022-09-12T06:28:47.514Z,938.56
2022-09-12T06:29:48.209Z,938.51
2022-09-12T06:30:49.167Z,938.58
2022-09-12T06:31:49.940Z,938.61
2022-09-12T06:32:50.190Z,938.61
2022-09-12T06:33:51.114Z,938.65
2022-09-12T06:34:51.723Z,938.61
2022-09-12T06:35:52.637Z,938.59
2022-09-12T06:36:52.836Z,938.67
2022-09-12T06:37:53.757Z,938.59
2022-09-12T06:38:54.535Z,938.63
2022-09-12T06:39:56.026Z,938.63
2022-09-12T06:40:56.315Z,938.61
2022-09-12T06:41:56.718Z,938.6
2022-09-12T06:42:56.920Z,938.61
2022-09-12T06:43:57.563Z,938.58
2022-09-12T06:44:58.466Z,938.64
2022-09-12T06:45:58.984Z,938.68
2022-09-12T06:46:59.570Z,938.66
2022-09-12T06:47:59.826Z,938.61
2022-09-12T06:49:00.368Z,938.62
2022-09-12T06:50:01.012Z,938.62
2022-09-12T06:51:01.964Z,938.6
2022-09-12T06:52:02.428Z,938.63
2022-09-12T06:53:03.060Z,938.6
2022-09-12T06:54:03.476Z,938.55
2022-09-12T06:55:03.681Z,938.58
2022-09-12T06:56:04.147Z,938.61
2022-09-12T06:57:05.045Z,938.66
2022-09-12T06:58:05.243Z,938.66
2022-09-12T06:59:05.578Z,938.62
2022-09-12T07:00:05.787Z,938.6
2022-09-12T07:01:06.760Z,938.59
2022-09-12T07:02:07.847Z,938.54
2022-09-12T07:03:08.586Z,938.58
2022-09-12T07:04:09.558Z,938.57
2022-09-12T07:05:10.471Z,938.54
2022-09-12T07:06:11.092Z,938.59
2022-09-12T07:07:11.722Z,938.54
2022-09-12T07:08:12.227Z,938.53
2022-09-12T07:09:12.586Z,938.52
2022-09-12T07:10:13.075Z,938.52
2022-09-12T07:11:13.396Z,938.53
2022-09-12T07:12:13.937Z,938.52
2022-09-12T07:13:14.207Z,938.54
2022-09-12T07:14:15.384Z,938.53
2022-09-12T07:15:16.049Z,938.53
2022-09-12T07:16:19.589Z,938.53
2022-09-12T07:17:17.166Z,938.53
2022-09-12T07:18:17.749Z,938.52
2022-09-12T07:19:18.746Z,938.54
2022-09-12T07:20:19.096Z,938.54
2022-09-12T07:21:19.611Z,938.52
2022-09-12T07:22:19.989Z,938.55
2022-09-12T07:23:20.626Z,938.57
2022-09-12T07:24:21.279Z,938.56
2022-09-12T07:25:21.479Z,938.59
2022-09-12T07:26:22.524Z,938.56
2022-09-12T07:27:23.445Z,938.56
2022-09-12T07:28:23.665Z,938.53
2022-09-12T07:29:38.630Z,938.58
2022-09-12T07:30:39.621Z,938.54
2022-09-12T07:31:40.492Z,938.57
2022-09-12T07:32:41.119Z,938.56
2022-09-12T07:33:41.784Z,938.6
2022-09-12T07:34:41.857Z,938.62
2022-09-12T07:35:42.189Z,938.66
2022-09-12T07:36:42.406Z,938.62
2022-09-12T07:37:43.345Z,938.58
2022-09-12T07:38:43.622Z,938.6
2022-09-12T07:39:43.848Z,938.58
2022-09-12T07:40:44.030Z,938.57
2022-09-12T07:41:44.241Z,938.59
2022-09-12T07:42:44.965Z,938.58
2022-09-12T07:43:45.679Z,938.58
2022-09-12T07:44:46.321Z,938.6
2022-09-12T07:45:46.623Z,938.58
2022-09-12T07:46:46.735Z,938.57
2022-09-12T07:47:47.705Z,938.56
2022-09-12T07:48:47.960Z,938.57
2022-09-12T07:49:48.083Z,938.64
2022-09-12T07:50:48.592Z,938.61
2022-09-12T07:51:48.848Z,938.62
2022-09-12T07:52:49.046Z,938.61
2022-09-12T07:53:49.716Z,938.61
2022-09-12T07:54:50.643Z,938.58
2022-09-12T07:55:50.867Z,938.59
2022-09-12T07:56:51.262Z,938.64
2022-09-12T07:57:52.073Z,938.6
2022-09-12T07:58:52.291Z,938.6
2022-09-12T07:59:53.864Z,938.58
2022-09-12T08:00:54.072Z,938.59
2022-09-12T08:01:54.541Z,938.56
2022-09-12T08:02:54.934Z,938.53
2022-09-12T08:03:55.893Z,938.5
2022-09-12T08:04:56.845Z,938.53
2022-09-12T08:05:57.053Z,938.51
2022-09-12T08:06:57.545Z,938.53
2022-09-12T08:07:58.486Z,938.52
2022-09-12T08:08:59.187Z,938.53
2022-09-12T08:10:00.237Z,938.53
2022-09-12T08:11:00.719Z,938.54
2022-09-12T08:12:01.214Z,938.55
2022-09-12T08:13:01.478Z,938.55
2022-09-12T08:14:02.385Z,938.59
2022-09-12T08:15:03.261Z,938.59
2022-09-12T08:16:03.468Z,938.6
2022-09-12T08:17:03.639Z,938.6
2022-09-12T08:18:04.709Z,938.61
2022-09-12T08:19:04.949Z,938.59
2022-09-12T08:20:05.959Z,938.6
2022-09-12T08:21:06.763Z,938.64
2022-09-12T08:22:07.683Z,938.62
2022-09-12T08:23:08.186Z,938.59
2022-09-12T08:24:08.441Z,938.6
2022-09-12T08:25:08.686Z,938.62
2022-09-12T08:26:09.171Z,938.6
2022-09-12T08:27:10.132Z,938.58
2022-09-12T08:28:11.058Z,938.58
2022-09-12T08:29:11.713Z,938.59
2022-09-12T08:30:12.035Z,938.62
2022-09-12T08:31:12.701Z,938.61
2022-09-12T08:32:13.685Z,938.6
2022-09-12T08:33:14.196Z,938.64
2022-09-12T08:34:14.480Z,938.6
2022-09-12T08:35:15.406Z,938.64
2022-09-12T08:36:16.064Z,938.61
2022-09-12T08:37:16.982Z,938.62
2022-09-12T08:38:17.175Z,938.61
2022-09-12T08:39:17.375Z,938.61
2022-09-12T08:40:18.461Z,938.61
2022-09-12T08:41:18.702Z,938.62
2022-09-12T08:42:19.215Z,938.6
2022-09-12T08:43:19.892Z,938.61
2022-09-12T08:44:20.877Z,938.61
2022-09-12T08:45:21.074Z,938.61
2022-09-12T08:46:21.576Z,938.61
2022-09-12T08:47:22.265Z,938.58
2022-09-12T08:48:22.886Z,938.55
2022-09-12T08:49:23.430Z,938.59
2022-09-12T08:50:24.137Z,938.6
2022-09-12T08:51:24.346Z,938.58
2022-09-12T08:52:25.417Z,938.58
2022-09-12T08:53:26.082Z,938.61
2022-09-12T08:54:27.002Z,938.59
2022-09-12T08:55:27.540Z,938.58
2022-09-12T08:56:31.512Z,938.6
2022-09-12T08:57:28.871Z,938.61
2022-09-12T08:58:29.790Z,938.59
2022-09-12T08:59:30.754Z,938.58
2022-09-12T09:00:31.471Z,938.61
2022-09-12T09:01:32.126Z,938.61
2022-09-12T09:02:32.762Z,938.6
2022-09-12T09:03:33.008Z,938.55
2022-09-12T09:04:33.394Z,938.56
2022-09-12T09:05:33.889Z,938.55
2022-09-12T09:06:34.107Z,938.53
2022-09-12T09:07:35.005Z,938.53
2022-09-12T09:08:35.943Z,938.53
2022-09-12T09:09:36.578Z,938.51
2022-09-12T09:10:37.329Z,938.51
2022-09-12T09:11:38.240Z,938.47
2022-09-12T09:12:38.490Z,938.49
2022-09-12T09:13:39.407Z,938.47
2022-09-12T09:14:40.029Z,938.46
2022-09-12T09:15:41.177Z,938.45
2022-09-12T09:16:41.116Z,938.46
2022-09-12T09:17:41.473Z,938.44
2022-09-12T09:18:41.675Z,938.45
2022-09-12T09:19:42.229Z,938.41
2022-09-12T09:20:43.114Z,938.41
2022-09-12T09:21:43.819Z,938.41
2022-09-12T09:22:44.317Z,938.41
2022-09-12T09:23:44.552Z,938.43
2022-09-12T09:24:45.249Z,938.44
2022-09-12T09:25:45.794Z,938.43
2022-09-12T09:26:46.020Z,938.43
2022-09-12T09:27:46.685Z,938.44
2022-09-12T09:28:47.601Z,938.37
2022-09-12T09:29:48.531Z,938.35
2022-09-12T09:30:48.817Z,938.35
2022-09-12T09:31:49.124Z,938.38
2022-09-12T09:32:50.028Z,938.37
2022-09-12T09:33:50.309Z,938.35
2022-09-12T09:34:50.331Z,938.36
2022-09-12T09:35:51.279Z,938.38
2022-09-12T09:36:51.971Z,938.35
2022-09-12T09:37:55.593Z,938.34
2022-09-12T09:38:54.106Z,938.3
2022-09-12T09:39:53.876Z,938.33
2022-09-12T09:40:54.190Z,938.34
2022-09-12T09:41:54.365Z,938.3
2022-09-12T09:42:54.561Z,938.35
2022-09-12T09:43:55.091Z,938.34
2022-09-12T09:44:55.944Z,938.32
2022-09-12T09:45:56.935Z,938.33
2022-09-12T09:46:57.152Z,938.32
2022-09-12T09:47:58.081Z,938.38
2022-09-12T09:48:58.789Z,938.31
2022-09-12T09:49:59.349Z,938.35
2022-09-12T09:50:59.905Z,938.33
2022-09-12T09:52:00.651Z,938.34
2022-09-12T09:53:01.266Z,938.37
2022-09-12T09:54:01.469Z,938.39
2022-09-12T09:55:02.374Z,938.38
2022-09-12T09:56:02.595Z,938.33
2022-09-12T09:57:03.482Z,938.39
2022-09-12T09:58:04.402Z,938.39
2022-09-12T09:59:05.310Z,938.4
2022-09-12T10:00:05.931Z,938.32
2022-09-12T10:01:06.903Z,938.33
2022-09-12T10:02:07.735Z,938.36
2022-09-12T10:03:11.435Z,938.32
2022-09-12T10:04:08.406Z,938.36
2022-09-12T10:05:08.950Z,938.37
2022-09-12T10:06:09.156Z,938.36
2022-09-12T10:07:09.658Z,938.44
2022-09-12T10:08:09.873Z,938.42
2022-09-12T10:09:10.528Z,938.43
2022-09-12T10:10:11.190Z,938.43
2022-09-12T10:11:11.662Z,938.39
2022-09-12T10:12:11.901Z,938.39
2022-09-12T10:13:12.050Z,938.4
2022-09-12T10:14:12.288Z,938.43
2022-09-12T10:15:12.585Z,938.42
2022-09-12T10:16:13.537Z,938.45
2022-09-12T10:17:13.694Z,938.44
2022-09-12T10:18:14.216Z,938.41
2022-09-12T10:19:14.450Z,938.44
2022-09-12T10:20:21.345Z,938.51
2022-09-12T10:21:15.338Z,938.49
2022-09-12T10:22:16.442Z,938.43
2022-09-12T10:23:17.380Z,938.46
2022-09-12T10:24:17.613Z,938.42
2022-09-12T10:25:17.849Z,938.42
2022-09-12T10:26:18.391Z,938.43
2022-09-12T10:27:18.604Z,938.4
2022-09-12T10:28:19.553Z,938.44
2022-09-12T10:29:19.765Z,938.44
2022-09-12T10:30:20.418Z,938.46
2022-09-12T10:31:20.761Z,938.44
2022-09-12T10:32:21.370Z,938.44
2022-09-12T10:33:22.004Z,938.39
2022-09-12T10:34:22.346Z,938.39
2022-09-12T10:35:22.592Z,938.4
2022-09-12T10:36:23.536Z,938.43
2022-09-12T10:37:24.453Z,938.41
2022-09-12T10:38:24.654Z,938.41
2022-09-12T10:39:24.891Z,938.43
2022-09-12T10:40:25.674Z,938.45
2022-09-12T10:41:26.482Z,938.43
2022-09-12T10:42:26.684Z,938.43
2022-09-12T10:43:27.319Z,938.41
2022-09-12T10:44:28.244Z,938.42
2022-09-12T10:45:28.577Z,938.41
2022-09-12T10:46:28.926Z,938.43
2022-09-12T10:47:29.898Z,938.42
2022-09-12T10:48:30.116Z,938.41
2022-09-12T10:49:30.782Z,938.43
2022-09-12T10:50:31.028Z,938.43
2022-09-12T10:51:31.760Z,938.43
2022-09-12T10:52:32.709Z,938.43
2022-09-12T10:53:34.605Z,938.4
2022-09-12T10:54:33.546Z,938.34
2022-09-12T10:55:33.758Z,938.31
2022-09-12T10:56:34.739Z,938.37
2022-09-12T10:57:35.235Z,938.35
2022-09-12T10:58:36.163Z,938.38
2022-09-12T10:59:37.095Z,938.34
2022-09-12T11:00:37.833Z,938.36
2022-09-12T11:01:38.404Z,938.38
2022-09-12T11:02:38.956Z,938.35
2022-09-12T11:03:39.056Z,938.38
2022-09-12T11:04:40.089Z,938.35
2022-09-12T11:05:40.674Z,938.35
2022-09-12T11:06:41.336Z,938.29
2022-09-12T11:07:41.685Z,938.33
2022-09-12T11:08:42.059Z,938.39
2022-09-12T11:09:42.514Z,938.34
2022-09-12T11:10:44.497Z,938.32
2022-09-12T11:11:43.607Z,938.3
2022-09-12T11:12:43.812Z,938.28
2022-09-12T11:13:44.468Z,938.31
2022-09-12T11:14:44.685Z,938.3
2022-09-12T11:15:44.970Z,938.29
2022-09-12T11:16:46.025Z,938.25
2022-09-12T11:17:46.669Z,938.26
2022-09-12T11:18:47.605Z,938.25
2022-09-12T11:19:48.270Z,938.24
2022-09-12T11:20:48.796Z,938.22
2022-09-12T11:21:49.119Z,938.19
2022-09-12T11:22:49.358Z,938.2
2022-09-12T11:23:50.331Z,938.22
2022-09-12T11:24:50.559Z,938.2
2022-09-12T11:25:50.915Z,938.23
2022-09-12T11:26:51.165Z,938.2
2022-09-12T11:27:51.355Z,938.21
2022-09-12T11:28:52.322Z,938.22
2022-09-12T11:29:53.279Z,938.21
2022-09-12T11:30:53.716Z,938.23
2022-09-12T11:31:54.305Z,938.2
2022-09-12T11:32:54.523Z,938.17
2022-09-12T11:33:56.857Z,938.16
2022-09-12T11:34:55.925Z,938.15
2022-09-12T11:35:56.574Z,938.16
2022-09-12T11:36:57.524Z,938.14
2022-09-12T11:37:58.271Z,938.15
2022-09-12T11:38:59.202Z,938.13
2022-09-12T11:39:59.871Z,938.11
2022-09-12T11:41:00.611Z,938.11
2022-09-12T11:42:01.364Z,938.1
2022-09-12T11:43:02.294Z,938.1
2022-09-12T11:44:03.217Z,938.05
2022-09-12T11:45:03.427Z,938.08
2022-09-12T11:46:04.448Z,938.03
2022-09-12T11:47:04.668Z,938.04
2022-09-12T11:48:04.871Z,938.07
2022-09-12T11:49:05.525Z,938.07
2022-09-12T11:50:05.740Z,938.05
2022-09-12T11:51:06.272Z,938.01
2022-09-12T11:52:06.561Z,937.99
2022-09-12T11:53:07.508Z,938.03
2022-09-12T11:54:07.766Z,938
2022-09-12T11:55:08.835Z,938.03
2022-09-12T11:56:09.036Z,937.96
2022-09-12T11:57:09.267Z,938.01
2022-09-12T11:58:09.456Z,938.01
2022-09-12T11:59:10.103Z,937.98
2022-09-12T12:00:10.346Z,938.05
2022-09-12T12:01:11.310Z,938.04
2022-09-12T12:02:12.127Z,937.99
2022-09-12T12:03:12.375Z,938.01
2022-09-12T12:04:12.620Z,938.01
2022-09-12T12:05:13.547Z,938.01
2022-09-12T12:06:14.089Z,938.02
2022-09-12T12:07:14.721Z,937.98
2022-09-12T12:08:15.659Z,938.02
2022-09-12T12:09:16.577Z,937.98
2022-09-12T12:10:17.078Z,938.04
2022-09-12T12:11:17.300Z,938.08
2022-09-12T12:12:17.849Z,938.06
2022-09-12T12:13:18.064Z,938.07
2022-09-12T12:14:18.281Z,938.02
2022-09-12T12:15:18.901Z,937.98
2022-09-12T12:16:19.254Z,937.99
2022-09-12T12:17:19.827Z,938.02
2022-09-12T12:18:19.752Z,937.99
2022-09-12T12:19:20.765Z,938
2022-09-12T12:20:21.674Z,938.01
2022-09-12T12:21:22.286Z,937.99
2022-09-12T12:22:22.676Z,937.94
2022-09-12T12:23:22.833Z,937.96
2022-09-12T12:24:23.375Z,937.97
2022-09-12T12:25:27.557Z,938.01
2022-09-12T12:26:23.978Z,937.97
2022-09-12T12:27:24.604Z,938
2022-09-12T12:28:25.175Z,937.97
2022-09-12T12:29:26.094Z,937.96
2022-09-12T12:30:26.448Z,937.98
2022-09-12T12:31:27.521Z,937.97
2022-09-12T12:32:28.338Z,937.95
2022-09-12T12:33:28.626Z,937.95
2022-09-12T12:34:28.890Z,937.94
2022-09-12T12:35:29.589Z,937.92
2022-09-12T12:36:30.129Z,937.95
2022-09-12T12:37:30.645Z,937.98
2022-09-12T12:38:30.962Z,937.95
2022-09-12T12:39:31.305Z,937.93
2022-09-12T12:40:31.553Z,937.98
2022-09-12T12:41:32.044Z,937.98